Time;durP1;ratioP1;P1;durP2;ratioP2;P2;SDS_P1;SDS_P2;PMS_P1;PMS_P2;Temp;Humidity;BMP_temperature;BMP_pressure;BME280_temperature;BME280_humidity;BME280_pressure;Samples;Min_cycle;Max_cycle;Signal;HPM_P1;HPM_P2
2021/12/06 00:01:43;;;;;;;2.35;1.38;;;18.30;73.00;;;;;;4961207;28;95303;-44
2021/12/06 00:04:23;;;;;;;2.47;1.42;;;18.40;72.90;;;;;;4961695;28;95432;-40
2021/12/06 00:07:08;;;;;;;3.47;1.92;;;18.40;72.90;;;;;;4960476;28;95555;-44
2021/12/06 00:09:40;;;;;;;2.55;1.58;;;18.40;72.90;;;;;;4960864;28;94952;-46
2021/12/06 00:12:14;;;;;;;3.17;1.42;;;18.40;72.90;;;;;;4961044;28;95189;-42
2021/12/06 00:14:46;;;;;;;1.77;1.55;;;18.50;72.90;;;;;;4960674;28;96507;-44
2021/12/06 00:17:19;;;;;;;1.63;1.40;;;18.60;72.90;;;;;;4959715;28;95827;-42
2021/12/06 00:19:52;;;;;;;1.63;1.38;;;18.60;72.80;;;;;;4960489;28;95046;-42
2021/12/06 00:22:25;;;;;;;2.97;1.30;;;18.60;72.70;;;;;;4960863;28;95268;-44
2021/12/06 00:24:58;;;;;;;3.88;1.80;;;18.60;72.60;;;;;;4960496;28;95893;-46
2021/12/06 00:27:30;;;;;;;2.20;1.50;;;18.70;72.60;;;;;;4956463;28;95300;-42
2021/12/06 00:30:00;;;;;;;;;;;18.70;72.50;;;;;;4956577;28;95467;-46
2021/12/06 00:32:32;;;;;;;1.93;1.77;;;18.80;72.50;;;;;;4960871;28;95272;-44
2021/12/06 00:35:04;;;;;;;1.58;1.23;;;18.80;72.50;;;;;;4960288;28;95863;-45
2021/12/06 00:37:42;;;;;;;2.85;1.60;;;18.80;72.40;;;;;;4958576;28;96115;-43
2021/12/06 00:40:15;;;;;;;2.20;1.48;;;18.90;72.40;;;;;;4959018;28;95004;-42
2021/12/06 00:42:47;;;;;;;1.58;1.27;;;18.90;72.40;;;;;;4960516;28;95345;-44
2021/12/06 00:45:19;;;;;;;3.67;1.40;;;18.90;72.40;;;;;;4960510;28;96462;-40
2021/12/06 00:47:50;;;;;;;2.10;1.30;;;19.00;72.30;;;;;;4960205;28;95898;-41
2021/12/06 00:50:27;;;;;;;2.10;1.45;;;19.00;72.20;;;;;;4961118;28;95056;-43
2021/12/06 00:53:02;;;;;;;2.72;1.92;;;19.10;72.20;;;;;;4960184;28;95399;-44
2021/12/06 00:55:34;;;;;;;1.98;1.60;;;19.10;72.10;;;;;;4961161;28;96458;-41
2021/12/06 00:58:07;;;;;;;1.77;1.30;;;19.10;72.10;;;;;;4960330;28;95857;-44
2021/12/06 01:00:44;;;;;;;1.27;1.17;;;19.10;72.00;;;;;;4959044;28;95094;-44
2021/12/06 01:03:31;;;;;;;3.03;1.90;;;19.20;72.00;;;;;;4959344;28;95614;-45
2021/12/06 01:06:07;;;;;;;2.13;1.55;;;19.20;71.90;;;;;;4960071;28;96438;-42
2021/12/06 01:08:40;;;;;;;1.63;1.38;;;19.30;71.90;;;;;;4960043;28;95414;-40
2021/12/06 01:11:12;;;;;;;1.83;1.48;;;19.30;71.80;;;;;;4959955;28;94995;-40
2021/12/06 01:13:45;;;;;;;1.63;1.40;;;19.40;71.90;;;;;;4960242;28;95326;-45
2021/12/06 01:16:19;;;;;;;1.80;1.20;;;19.40;71.70;;;;;;4958371;28;96469;-44
2021/12/06 01:18:52;;;;;;;2.72;1.77;;;19.40;71.70;;;;;;4958360;28;96035;-45
2021/12/06 01:21:41;;;;;;;2.58;1.20;;;19.50;71.70;;;;;;4959835;28;95035;-44
2021/12/06 01:24:16;;;;;;;1.88;1.33;;;19.50;71.60;;;;;;4945603;28;95411;-44
2021/12/06 01:32:22;;;;;;;2.30;1.38;;;19.60;71.50;;;;;;4942156;28;95162;-42
2021/12/06 01:40:27;;;;;;;1.70;1.30;;;19.70;71.40;;;;;;4959238;28;95421;-42
2021/12/06 01:43:03;;;;;;;1.83;1.55;;;19.80;71.30;;;;;;4959495;28;95054;-45
2021/12/06 01:45:35;;;;;;;1.55;1.45;;;19.80;71.30;;;;;;4960274;28;95303;-44
2021/12/06 01:48:07;;;;;;;1.73;1.23;;;19.90;71.30;;;;;;4960399;28;96065;-38
2021/12/06 01:50:43;;;;;;;2.03;1.60;;;19.90;71.20;;;;;;4960241;28;95238;-44
2021/12/06 01:53:17;;;;;;;2.22;1.38;;;19.90;71.20;;;;;;4958866;28;95136;-43
2021/12/06 01:55:49;;;;;;;1.75;1.40;;;20.00;71.10;;;;;;4960273;28;95442;-46
2021/12/06 01:58:23;;;;;;;1.75;1.30;;;20.00;71.00;;;;;;4959047;28;96413;-42
2021/12/06 02:00:55;;;;;;;2.63;1.40;;;20.00;71.00;;;;;;4958894;28;95737;-42
2021/12/06 02:03:32;;;;;;;2.17;1.60;;;20.10;71.00;;;;;;4959626;28;94986;-41
2021/12/06 02:06:06;;;;;;;1.20;1.10;;;20.10;70.90;;;;;;4959508;28;95133;-44
2021/12/06 02:08:38;;;;;;;2.40;1.42;;;20.10;70.80;;;;;;4958544;28;96304;-40
2021/12/06 02:11:12;;;;;;;1.83;1.30;;;20.20;70.80;;;;;;4958672;28;95117;-45
2021/12/06 02:13:53;;;;;;;1.10;1.00;;;20.10;70.70;;;;;;4959228;28;95131;-43
2021/12/06 02:16:35;;;;;;;1.55;1.15;;;20.20;70.70;;;;;;4959227;28;95307;-44
2021/12/06 02:19:09;;;;;;;1.55;1.27;;;20.20;70.70;;;;;;4958565;28;96422;-42
2021/12/06 02:21:42;;;;;;;1.85;1.38;;;20.30;70.70;;;;;;4956588;28;95835;-42
2021/12/06 02:24:15;;;;;;;1.63;1.50;;;20.30;70.60;;;;;;4958787;28;94995;-43
2021/12/06 02:26:47;;;;;;;1.95;1.75;;;20.30;70.60;;;;;;4958303;28;95168;-40
2021/12/06 02:29:19;;;;;;;2.33;1.40;;;20.40;70.60;;;;;;4952482;28;96538;-44
2021/12/06 02:31:51;;;;;;;2.92;1.15;;;20.40;70.60;;;;;;4956934;28;95717;-46
2021/12/06 02:34:23;;;;;;;1.80;1.30;;;20.40;70.60;;;;;;4958662;28;94976;-45
2021/12/06 02:36:54;;;;;;;1.40;1.30;;;20.40;70.60;;;;;;4959121;28;95182;-45
2021/12/06 02:39:28;;;;;;;2.67;1.65;;;20.40;70.50;;;;;;4958447;28;95871;-44
2021/12/06 02:42:01;;;;;;;2.28;1.58;;;20.50;70.50;;;;;;4956847;28;95808;-45
2021/12/06 02:44:33;;;;;;;2.10;1.60;;;20.50;70.50;;;;;;4958438;28;94999;-45
2021/12/06 02:47:06;;;;;;;2.58;1.80;;;20.60;70.50;;;;;;4958256;28;95319;-42
2021/12/06 02:49:37;;;;;;;3.42;1.88;;;20.60;70.40;;;;;;4959511;28;96521;-45
2021/12/06 02:52:11;;;;;;;2.28;1.30;;;20.60;70.30;;;;;;4959072;28;95844;-42
2021/12/06 02:54:55;;;;;;;2.10;1.90;;;20.60;70.30;;;;;;4959268;28;94976;-43
2021/12/06 02:57:37;;;;;;;2.67;2.22;;;20.70;70.30;;;;;;4958364;28;95395;-44
2021/12/06 03:00:18;;;;;;;2.45;1.98;;;20.70;70.30;;;;;;4956675;28;96455;-43
2021/12/06 03:02:49;;;;;;;2.25;1.98;;;20.80;70.30;;;;;;4958089;28;95938;-45
2021/12/06 03:05:25;;;;;;;2.85;1.75;;;20.80;70.20;;;;;;4957854;28;95131;-43
2021/12/06 03:08:00;;;;;;;2.40;1.92;;;20.90;70.20;;;;;;4958627;28;95319;-45
2021/12/06 03:10:32;;;;;;;3.10;2.25;;;20.90;70.20;;;;;;4956955;28;96271;-45
2021/12/06 03:13:04;;;;;;;4.55;2.47;;;21.00;70.10;;;;;;4957526;28;95845;-43
2021/12/06 03:15:39;;;;;;;2.33;1.90;;;21.00;70.00;;;;;;4958068;28;95006;-42
2021/12/06 03:18:12;;;;;;;4.28;2.40;;;21.10;69.90;;;;;;4958516;28;95208;-44
2021/12/06 03:20:45;;;;;;;3.67;2.38;;;21.10;69.80;;;;;;4957435;28;96660;-43
2021/12/06 03:23:16;;;;;;;3.75;2.55;;;21.10;69.80;;;;;;4957698;28;95826;-41
2021/12/06 03:25:49;;;;;;;2.17;1.98;;;21.10;69.80;;;;;;4956578;28;94992;-44
2021/12/06 03:28:19;;;;;;;2.70;1.90;;;21.20;69.80;;;;;;4951066;28;95456;-42
2021/12/06 03:30:52;;;;;;;3.15;2.13;;;21.20;69.80;;;;;;4955976;28;97201;-39
2021/12/06 03:33:24;;;;;;;2.08;1.88;;;21.20;69.70;;;;;;4956193;28;95474;-41
2021/12/06 03:35:57;;;;;;;2.28;2.08;;;21.30;69.70;;;;;;4956375;28;94991;-45
2021/12/06 03:38:28;;;;;;;2.03;1.83;;;21.30;69.60;;;;;;4957793;28;95312;-44
2021/12/06 03:41:01;;;;;;;2.67;2.03;;;21.30;69.60;;;;;;4957410;28;96431;-44
2021/12/06 03:43:35;;;;;;;1.92;1.60;;;21.30;69.50;;;;;;4957485;28;95913;-45
2021/12/06 03:46:09;;;;;;;2.00;1.80;;;21.40;69.50;;;;;;4957082;28;95043;-41
2021/12/06 03:48:41;;;;;;;2.00;1.67;;;21.40;69.40;;;;;;4957615;28;95519;-44
2021/12/06 03:51:15;;;;;;;1.80;1.60;;;21.40;69.40;;;;;;4958342;28;95558;-45
2021/12/06 03:53:48;;;;;;;2.53;1.77;;;21.50;69.40;;;;;;4958712;28;95530;-45
2021/12/06 03:56:20;;;;;;;1.60;1.50;;;21.50;69.40;;;;;;4959159;28;95035;-44
2021/12/06 03:58:53;;;;;;;2.63;2.00;;;21.50;69.30;;;;;;4957979;28;95370;-41
2021/12/06 04:01:25;;;;;;;1.90;1.70;;;21.60;69.30;;;;;;4957520;28;95830;-40
2021/12/06 04:03:57;;;;;;;1.85;1.70;;;21.60;69.30;;;;;;4957548;28;95417;-44
2021/12/06 04:06:31;;;;;;;2.35;2.10;;;21.60;69.20;;;;;;4957285;28;94968;-43
2021/12/06 04:09:06;;;;;;;3.00;2.15;;;21.60;69.10;;;;;;4957836;28;95225;-44
2021/12/06 04:11:39;;;;;;;2.05;1.48;;;21.70;69.20;;;;;;4955721;28;98508;-44
2021/12/06 04:14:13;;;;;;;2.63;2.08;;;21.70;69.10;;;;;;4957079;28;95445;-45
2021/12/06 04:16:47;;;;;;;2.70;2.03;;;21.70;69.10;;;;;;4956218;28;94963;-41
2021/12/06 04:19:20;;;;;;;1.85;1.67;;;21.70;69.00;;;;;;4957486;28;95338;-43
2021/12/06 04:21:53;;;;;;;1.60;1.50;;;21.70;69.00;;;;;;4958509;28;96524;-40
2021/12/06 04:24:24;;;;;;;1.70;1.50;;;21.80;69.00;;;;;;4960644;28;95285;-43
2021/12/06 04:26:58;;;;;;;1.90;1.60;;;21.80;69.00;;;;;;4957101;28;95200;-44
2021/12/06 04:29:29;;;;;;;2.10;1.80;;;21.80;68.90;;;;;;4954904;28;95390;-42
2021/12/06 04:32:00;;;;;;;1.95;1.70;;;21.80;68.90;;;;;;4959136;28;96351;-44
2021/12/06 04:34:32;;;;;;;2.65;2.40;;;21.90;68.90;;;;;;4960065;28;95473;-44
2021/12/06 04:37:05;;;;;;;2.88;1.85;;;21.90;68.90;;;;;;4960921;28;95011;-45
2021/12/06 04:39:38;;;;;;;2.22;1.80;;;21.90;68.80;;;;;;4960906;28;95248;-43
2021/12/06 04:42:10;;;;;;;2.05;1.80;;;22.00;68.90;;;;;;4959897;28;96539;-44
2021/12/06 04:44:42;;;;;;;2.42;1.55;;;22.00;68.80;;;;;;4960012;28;95812;-45
2021/12/06 04:47:16;;;;;;;2.47;1.60;;;22.00;68.80;;;;;;4960310;28;94988;-43
2021/12/06 04:49:48;;;;;;;2.17;1.75;;;22.00;68.80;;;;;;4961799;28;95432;-42
2021/12/06 04:52:21;;;;;;;1.65;1.40;;;22.10;68.80;;;;;;4961020;28;96457;-45
2021/12/06 04:54:58;;;;;;;1.55;1.30;;;22.10;68.80;;;;;;4961150;28;95891;-42
2021/12/06 04:57:40;;;;;;;1.33;1.23;;;22.10;68.80;;;;;;4959802;28;95069;-44
2021/12/06 05:00:14;;;;;;;1.58;1.23;;;22.10;68.70;;;;;;4960268;28;95450;-43
2021/12/06 05:02:51;;;;;;;3.13;1.70;;;22.10;69.30;;;;;;4958925;28;96669;-45
2021/12/06 05:05:30;;;;;;;1.63;1.25;;;22.20;68.70;;;;;;4960361;28;96068;-44
2021/12/06 05:08:13;;;;;;;2.05;1.63;;;22.20;68.60;;;;;;4960607;28;94986;-43
2021/12/06 05:10:45;;;;;;;1.70;1.55;;;22.20;68.60;;;;;;4958921;28;95445;-45
2021/12/06 05:13:19;;;;;;;1.70;1.60;;;22.20;68.50;;;;;;4959757;28;96419;-45
2021/12/06 05:15:52;;;;;;;2.25;1.60;;;22.30;68.50;;;;;;4959569;28;95605;-44
2021/12/06 05:18:27;;;;;;;1.98;1.60;;;22.30;68.50;;;;;;4959663;28;94986;-44
2021/12/06 05:20:59;;;;;;;1.95;1.73;;;22.30;68.50;;;;;;4959532;28;95403;-44
2021/12/06 05:23:32;;;;;;;1.92;1.73;;;22.40;68.50;;;;;;4959351;28;96488;-45
2021/12/06 05:26:04;;;;;;;2.25;1.73;;;22.40;68.50;;;;;;4959423;28;95874;-39
2021/12/06 05:28:42;;;;;;;1.50;1.40;;;22.40;68.40;;;;;;4952247;28;95270;-45
2021/12/06 05:31:18;;;;;;;2.10;1.80;;;22.40;68.40;;;;;;4958757;28;95429;-43
2021/12/06 05:33:59;;;;;;;1.50;1.40;;;22.40;68.40;;;;;;4958603;28;96658;-45
2021/12/06 05:36:31;;;;;;;1.65;1.50;;;22.50;68.40;;;;;;4959204;28;95848;-44
2021/12/06 05:39:03;;;;;;;1.38;1.30;;;22.50;68.40;;;;;;4958426;28;95047;-41
2021/12/06 05:41:35;;;;;;;1.48;1.38;;;22.50;68.30;;;;;;4959780;28;95398;-43
2021/12/06 05:44:06;;;;;;;1.40;1.30;;;22.50;68.30;;;;;;4959197;28;96643;-43
2021/12/06 05:46:37;;;;;;;2.67;1.67;;;22.50;68.20;;;;;;4959748;28;95479;-42
2021/12/06 05:49:09;;;;;;;1.67;1.30;;;22.60;68.30;;;;;;4960219;28;94968;-44
2021/12/06 05:51:40;;;;;;;;;;;22.50;68.10;;;;;;4961018;28;95378;-44
2021/12/06 05:54:12;;;;;;;1.98;1.65;;;22.60;68.20;;;;;;4961610;28;95349;-41
2021/12/06 05:56:45;;;;;;;2.28;1.52;;;22.60;68.10;;;;;;4959978;28;95919;-43
2021/12/06 05:59:19;;;;;;;1.38;1.27;;;22.50;68.10;;;;;;4959502;28;94947;-46
2021/12/06 06:01:53;;;;;;;1.30;1.20;;;22.60;68.10;;;;;;4955853;28;95280;-45
2021/12/06 06:04:27;;;;;;;2.47;1.45;;;22.60;68.10;;;;;;4959904;28;95845;-43
2021/12/06 06:07:01;;;;;;;1.38;1.27;;;22.60;68.10;;;;;;4959459;28;95742;-44
2021/12/06 06:09:34;;;;;;;1.40;1.30;;;22.60;68.00;;;;;;4958958;28;94985;-45
2021/12/06 06:12:06;;;;;;;1.70;1.30;;;22.60;68.00;;;;;;4958970;28;95338;-46
2021/12/06 06:14:39;;;;;;;1.50;1.40;;;22.60;68.00;;;;;;4958613;28;96431;-44
2021/12/06 06:17:14;;;;;;;1.63;1.48;;;22.60;68.00;;;;;;4957723;28;96056;-45
2021/12/06 06:19:54;;;;;;;2.25;1.35;;;22.60;67.90;;;;;;4958417;28;94979;-43
2021/12/06 06:22:27;;;;;;;1.58;1.48;;;22.70;68.00;;;;;;4959037;28;95307;-46
2021/12/06 06:24:58;;;;;;;1.90;1.70;;;22.70;67.90;;;;;;4957217;28;96500;-42
2021/12/06 06:27:29;;;;;;;2.03;1.67;;;22.70;67.90;;;;;;4955508;28;95823;-43
2021/12/06 06:30:01;;;;;;;1.65;1.40;;;22.80;67.80;;;;;;4953325;28;95326;-45
2021/12/06 06:32:33;;;;;;;1.60;1.40;;;22.70;67.70;;;;;;4957886;28;95292;-42
2021/12/06 06:35:05;;;;;;;1.30;1.20;;;22.80;67.80;;;;;;4958304;28;95328;-43
2021/12/06 06:37:38;;;;;;;1.58;1.45;;;22.70;67.60;;;;;;4958047;28;95456;-46
2021/12/06 06:40:10;;;;;;;1.80;1.45;;;22.80;67.70;;;;;;4958403;28;95042;-40
2021/12/06 06:42:43;;;;;;;1.67;1.38;;;22.80;67.70;;;;;;4957671;28;95427;-43
2021/12/06 06:45:18;;;;;;;2.08;1.60;;;22.80;67.60;;;;;;4957350;28;96644;-46
2021/12/06 06:47:50;;;;;;;1.40;1.30;;;22.80;67.70;;;;;;4959446;28;95976;-44
2021/12/06 06:50:22;;;;;;;1.30;1.20;;;22.80;67.60;;;;;;4959544;28;94981;-45
2021/12/06 06:52:54;;;;;;;1.67;1.58;;;22.80;67.70;;;;;;4960066;28;95202;-45
2021/12/06 06:55:27;;;;;;;1.60;1.40;;;22.90;67.70;;;;;;4959254;28;96622;-44
2021/12/06 06:58:00;;;;;;;3.03;1.75;;;22.90;67.50;;;;;;4958878;28;96103;-43
2021/12/06 07:00:37;;;;;;;1.33;1.23;;;22.90;67.50;;;;;;4958465;28;94978;-39
2021/12/06 07:03:09;;;;;;;1.45;1.35;;;22.90;67.50;;;;;;4958624;28;95299;-44
2021/12/06 07:05:43;;;;;;;1.13;1.08;;;22.90;67.50;;;;;;4958510;28;96372;-43
2021/12/06 07:08:15;;;;;;;1.00;0.90;;;22.90;67.40;;;;;;4957900;28;95788;-43
2021/12/06 07:10:50;;;;;;;1.45;1.35;;;22.90;67.40;;;;;;4958106;28;95053;-45
2021/12/06 07:13:23;;;;;;;1.10;1.00;;;22.90;67.40;;;;;;4958319;28;95235;-42
2021/12/06 07:15:55;;;;;;;2.40;1.38;;;22.90;67.50;;;;;;4957674;28;96401;-42
2021/12/06 07:18:27;;;;;;;1.85;1.15;;;23.00;67.50;;;;;;4957719;28;94947;-44
2021/12/06 07:21:00;;;;;;;1.33;1.10;;;22.90;67.40;;;;;;4958023;28;95307;-45
2021/12/06 07:23:32;;;;;;;1.70;1.60;;;23.00;67.40;;;;;;4958194;28;95302;-46
2021/12/06 07:26:03;;;;;;;1.42;1.33;;;23.00;67.40;;;;;;4957718;28;96494;-44
2021/12/06 07:28:36;;;;;;;1.58;1.20;;;23.00;67.40;;;;;;4949936;28;95828;-46
2021/12/06 07:31:12;;;;;;;1.38;1.27;;;23.00;67.30;;;;;;4956901;28;95156;-40
2021/12/06 07:33:46;;;;;;;1.13;1.10;;;23.00;67.30;;;;;;4958209;28;95283;-44
2021/12/06 07:36:25;;;;;;;1.83;1.13;;;23.00;67.30;;;;;;4957462;28;96131;-42
2021/12/06 07:38:59;;;;;;;1.20;1.00;;;23.00;67.30;;;;;;4957335;28;95867;-40
2021/12/06 07:41:31;;;;;;;1.25;1.13;;;23.00;67.20;;;;;;4957681;28;95034;-42
2021/12/06 07:44:03;;;;;;;;;;;23.00;67.30;;;;;;4958350;28;95346;-45
2021/12/06 07:46:35;;;;;;;1.10;1.00;;;23.00;67.20;;;;;;4958783;28;96569;-45
2021/12/06 07:49:08;;;;;;;1.50;1.40;;;23.00;67.30;;;;;;4958573;28;95842;-41
2021/12/06 07:51:40;;;;;;;2.17;1.42;;;23.00;67.20;;;;;;4958816;28;94764;-44
2021/12/06 07:54:14;;;;;;;1.23;1.02;;;23.00;67.30;;;;;;4958719;28;95498;-45
2021/12/06 07:56:50;;;;;;;1.65;1.15;;;23.10;67.30;;;;;;4959804;28;96460;-42
2021/12/06 07:59:22;;;;;;;1.42;1.33;;;23.10;67.30;;;;;;4960774;28;95133;-45
2021/12/06 08:01:55;;;;;;;1.83;1.45;;;23.10;67.10;;;;;;4958728;28;95012;-42
2021/12/06 08:04:29;;;;;;;1.17;1.08;;;23.10;67.20;;;;;;4962396;28;95261;-43
2021/12/06 08:07:02;;;;;;;1.08;0.93;;;23.10;67.10;;;;;;4960816;28;96449;-44
2021/12/06 08:09:35;;;;;;;1.80;1.40;;;23.10;67.80;;;;;;4959792;28;96076;-44
2021/12/06 08:12:10;;;;;;;1.20;1.13;;;23.10;67.10;;;;;;4960845;28;94997;-40
2021/12/06 08:14:41;;;;;;;2.15;1.50;;;23.10;67.10;;;;;;4960939;28;95283;-43
2021/12/06 08:17:19;;;;;;;2.10;1.15;;;23.10;67.10;;;;;;4959703;28;96890;-45
2021/12/06 08:19:52;;;;;;;1.92;1.08;;;23.10;67.10;;;;;;4959885;28;96020;-44
2021/12/06 08:22:23;;;;;;;1.30;1.17;;;23.20;67.20;;;;;;4960480;28;95010;-41
2021/12/06 08:24:54;;;;;;;;;;;23.20;67.30;;;;;;4961537;28;95164;-44
2021/12/06 08:27:25;;;;;;;1.33;1.23;;;23.20;67.30;;;;;;4959175;28;95251;-42
2021/12/06 08:29:56;;;;;;;1.92;1.17;;;23.20;67.20;;;;;;4954606;28;95819;-42
2021/12/06 08:32:27;;;;;;;1.83;1.20;;;23.20;67.20;;;;;;4959195;28;95061;-44
2021/12/06 08:34:59;;;;;;;1.10;1.00;;;23.20;67.10;;;;;;4959378;28;95344;-45
2021/12/06 08:37:29;;;;;;;;;;;23.20;67.20;;;;;;4960697;28;96679;-46
2021/12/06 08:40:01;;;;;;;1.95;1.52;;;23.20;67.10;;;;;;4961481;28;95395;-46
2021/12/06 08:42:34;;;;;;;1.23;1.13;;;23.20;67.10;;;;;;4960264;28;94955;-44
2021/12/06 08:45:09;;;;;;;1.55;1.45;;;23.20;67.00;;;;;;4960563;28;95389;-40
2021/12/06 08:47:42;;;;;;;1.23;1.13;;;23.10;67.10;;;;;;4958891;28;96532;-42
2021/12/06 08:50:22;;;;;;;2.58;1.50;;;23.20;67.10;;;;;;4960894;28;95826;-45
2021/12/06 08:52:56;;;;;;;2.97;1.45;;;23.20;67.20;;;;;;4960989;28;94998;-44
2021/12/06 08:55:29;;;;;;;1.45;1.15;;;23.20;67.00;;;;;;4961221;28;95292;-46
2021/12/06 08:58:00;;;;;;;;;;;23.10;67.10;;;;;;4961238;28;96506;-44
2021/12/06 09:00:38;;;;;;;2.80;1.90;;;23.20;67.20;;;;;;4961415;28;95141;-42
2021/12/06 09:03:12;;;;;;;3.90;2.05;;;23.20;67.10;;;;;;4960509;28;94955;-43
2021/12/06 09:05:50;;;;;;;3.00;1.77;;;23.10;67.20;;;;;;4960902;28;95295;-44
2021/12/06 09:08:24;;;;;;;4.80;2.85;;;23.20;67.20;;;;;;4957991;28;96393;-44
2021/12/06 09:10:56;;;;;;;6.53;2.40;;;23.20;67.20;;;;;;4959724;28;94987;-42
2021/12/06 09:13:31;;;;;;;3.13;2.38;;;23.10;67.30;;;;;;4959804;28;94978;-43
2021/12/06 09:16:07;;;;;;;8.48;3.25;;;23.20;67.30;;;;;;4960077;28;95380;-46
2021/12/06 09:18:41;;;;;;;4.57;3.47;;;23.20;67.60;;;;;;4959654;28;96081;-45
2021/12/06 09:21:21;;;;;;;5.47;3.33;;;23.10;67.80;;;;;;4959363;28;95793;-43
2021/12/06 09:23:54;;;;;;;6.57;3.00;;;23.00;67.80;;;;;;4959802;28;95059;-46
2021/12/06 09:26:25;;;;;;;7.57;2.90;;;22.90;67.50;;;;;;4960023;28;95247;-46
2021/12/06 09:28:57;;;;;;;5.57;3.10;;;22.80;67.40;;;;;;4952188;28;96447;-44
2021/12/06 09:31:28;;;;;;;6.07;2.75;;;22.80;67.40;;;;;;4958939;28;95996;-46
2021/12/06 09:34:01;;;;;;;5.38;2.63;;;22.80;67.20;;;;;;4959434;28;95081;-46
2021/12/06 09:36:36;;;;;;;5.03;2.90;;;22.70;67.00;;;;;;4959496;28;95334;-41
2021/12/06 09:39:08;;;;;;;5.07;2.53;;;22.70;66.80;;;;;;4959168;28;95546;-44
2021/12/06 09:41:42;;;;;;;5.45;2.65;;;22.60;67.00;;;;;;4959166;28;95831;-46
2021/12/06 09:44:14;;;;;;;6.70;2.80;;;22.60;67.20;;;;;;4959400;28;95088;-44
2021/12/06 09:46:46;;;;;;;4.93;2.25;;;22.60;67.30;;;;;;4959746;28;95335;-43
2021/12/06 09:49:22;;;;;;;5.18;2.10;;;22.70;67.20;;;;;;4960323;28;95522;-46
2021/12/06 09:52:02;;;;;;;5.55;2.40;;;22.70;66.70;;;;;;4960007;28;95513;-46
2021/12/06 09:54:38;;;;;;;4.38;2.22;;;22.60;66.50;;;;;;4959963;28;95019;-44
2021/12/06 09:57:11;;;;;;;2.28;1.40;;;22.60;66.50;;;;;;4960477;28;95302;-43
2021/12/06 09:59:46;;;;;;;4.57;1.95;;;22.60;66.50;;;;;;4957561;28;96552;-43
2021/12/06 10:02:21;;;;;;;7.03;2.45;;;22.60;66.20;;;;;;4956348;28;95817;-45
2021/12/06 10:05:00;;;;;;;5.70;2.60;;;22.60;66.40;;;;;;4959650;28;95038;-45
2021/12/06 10:07:34;;;;;;;3.17;2.15;;;22.60;66.40;;;;;;4959700;28;95437;-45
2021/12/06 10:10:10;;;;;;;2.60;1.55;;;22.60;66.60;;;;;;4959272;28;95873;-44
2021/12/06 10:12:48;;;;;;;3.35;1.58;;;22.60;66.60;;;;;;4957439;28;95261;-46
2021/12/06 10:15:27;;;;;;;2.97;1.50;;;22.60;66.60;;;;;;4958870;28;95030;-44
2021/12/06 10:18:01;;;;;;;4.55;2.13;;;22.60;66.60;;;;;;4939332;28;94733;-45
2021/12/06 10:20:33;;;;;;;4.97;1.38;;;22.60;66.70;;;;;;4938803;28;96399;-44
2021/12/06 10:23:04;;;;;;;3.47;1.58;;;22.60;66.70;;;;;;4938938;28;95601;-45
2021/12/06 10:25:37;;;;;;;;;;;22.50;66.70;;;;;;4939634;28;94971;-44
2021/12/06 10:28:16;;;;;;;3.20;1.80;;;22.60;66.80;;;;;;4937152;28;95286;-45
2021/12/06 10:30:53;;;;;;;2.83;1.95;;;22.50;66.70;;;;;;4935918;28;96426;-45
2021/12/06 10:33:27;;;;;;;3.00;2.13;;;22.50;66.70;;;;;;4938773;28;95846;-45
2021/12/06 10:36:08;;;;;;;3.40;1.63;;;22.50;66.80;;;;;;4939265;28;95026;-43
2021/12/06 10:38:51;;;;;;;2.35;1.55;;;22.50;66.80;;;;;;4939349;28;95141;-41
2021/12/06 10:41:26;;;;;;;2.13;1.33;;;22.50;66.90;;;;;;4938777;28;96064;-44
2021/12/06 10:44:05;;;;;;;3.40;1.80;;;22.50;66.70;;;;;;4938934;28;95777;-43
2021/12/06 10:46:42;;;;;;;6.22;1.83;;;22.50;66.80;;;;;;4940360;28;94977;-43
2021/12/06 10:49:22;;;;;;;2.72;1.60;;;22.50;66.80;;;;;;4940394;28;95184;-42
2021/12/06 10:51:54;;;;;;;4.25;1.58;;;22.40;66.70;;;;;;4939695;28;96548;-42
2021/12/06 10:54:48;;;;;;;2.15;1.40;;;22.40;66.80;;;;;;4939417;28;95998;-43
2021/12/06 10:57:21;;;;;;;2.05;1.52;;;22.40;66.60;;;;;;4938901;28;95063;-42
2021/12/06 10:59:53;;;;;;;4.53;2.25;;;22.40;66.70;;;;;;4939529;28;95391;-44
2021/12/06 11:02:26;;;;;;;2.35;1.42;;;22.40;66.60;;;;;;4938434;28;96408;-42
2021/12/06 11:04:59;;;;;;;2.70;1.67;;;22.30;66.60;;;;;;4939125;28;96040;-41
2021/12/06 11:07:36;;;;;;;2.22;2.03;;;22.30;66.50;;;;;;4939500;28;95046;-45
2021/12/06 11:10:10;;;;;;;2.95;1.90;;;22.30;66.60;;;;;;4939116;28;95534;-41
2021/12/06 11:12:42;;;;;;;4.15;1.92;;;22.30;66.60;;;;;;4938548;28;96508;-44
2021/12/06 11:15:15;;;;;;;2.53;1.80;;;22.30;67.30;;;;;;4938264;28;95146;-45
2021/12/06 11:18:01;;;;;;;3.72;2.25;;;22.20;66.50;;;;;;4937547;28;95452;-45
2021/12/06 11:20:33;;;;;;;4.97;2.05;;;22.20;66.60;;;;;;4938465;28;95287;-42
2021/12/06 11:23:07;;;;;;;5.05;2.28;;;22.20;66.60;;;;;;4938289;28;96042;-44
2021/12/06 11:25:38;;;;;;;5.35;2.03;;;22.20;66.50;;;;;;4938168;28;95802;-44
2021/12/06 11:28:29;;;;;;;4.03;1.95;;;22.20;66.50;;;;;;4935547;28;95282;-45
2021/12/06 11:31:05;;;;;;;4.93;1.85;;;22.10;66.60;;;;;;4937555;28;95335;-45
2021/12/06 11:33:36;;;;;;;2.60;1.75;;;22.10;66.50;;;;;;4941466;28;96445;-46
2021/12/06 11:36:20;;;;;;;4.47;1.95;;;22.10;67.20;;;;;;4941552;28;96107;-43
2021/12/06 11:39:17;;;;;;;5.85;1.65;;;22.10;66.60;;;;;;4942043;28;94975;-42
2021/12/06 11:41:51;;;;;;;5.45;1.98;;;22.10;66.50;;;;;;4942032;28;95296;-43
2021/12/06 11:44:31;;;;;;;3.28;1.85;;;22.10;66.50;;;;;;4941455;28;96526;-45
2021/12/06 11:47:05;;;;;;;2.42;1.65;;;22.10;66.50;;;;;;4941607;28;95263;-42
2021/12/06 11:49:45;;;;;;;4.40;1.70;;;22.10;66.40;;;;;;4942784;28;94957;-46
2021/12/06 11:52:32;;;;;;;2.38;1.50;;;22.10;66.40;;;;;;4942850;28;95397;-45
2021/12/06 11:55:11;;;;;;;4.38;1.60;;;22.00;66.20;;;;;;4942196;28;96401;-44
2021/12/06 11:57:53;;;;;;;5.15;1.63;;;22.00;66.30;;;;;;4942154;28;95905;-46
2021/12/06 12:00:27;;;;;;;4.22;1.60;;;22.00;66.90;;;;;;4941756;28;94962;-39
2021/12/06 12:03:02;;;;;;;4.65;1.38;;;22.00;66.40;;;;;;4942143;28;95180;-45
2021/12/06 12:05:41;;;;;;;2.58;1.52;;;21.90;66.30;;;;;;4941745;28;96406;-43
2021/12/06 12:08:33;;;;;;;1.85;1.42;;;21.90;66.20;;;;;;4941991;28;95882;-43
2021/12/06 12:11:07;;;;;;;3.38;1.33;;;21.90;66.30;;;;;;4941356;28;94971;-43
2021/12/06 12:13:43;;;;;;;2.25;1.60;;;21.90;66.30;;;;;;4941470;28;95217;-42
2021/12/06 12:16:17;;;;;;;2.83;1.35;;;21.90;66.30;;;;;;4941190;28;95866;-45
2021/12/06 12:18:50;;;;;;;4.43;1.88;;;21.80;66.20;;;;;;4940905;28;95785;-42
2021/12/06 12:21:22;;;;;;;2.08;1.13;;;21.80;66.20;;;;;;4940749;28;95292;-42
2021/12/06 12:23:54;;;;;;;5.45;2.00;;;21.80;66.10;;;;;;4941665;28;95232;-46
2021/12/06 12:26:24;;;;;;;3.63;1.65;;;21.80;66.00;;;;;;4940713;28;96432;-45
2021/12/06 12:29:12;;;;;;;;;;;21.80;66.10;;;;;;4935655;28;96012;-41
2021/12/06 12:31:44;;;;;;;4.85;2.33;;;21.70;66.20;;;;;;4941196;28;94967;-46
2021/12/06 12:34:17;;;;;;;7.82;2.95;;;21.70;66.30;;;;;;4941538;28;95142;-45
2021/12/06 12:36:52;;;;;;;4.57;2.78;;;21.70;66.10;;;;;;4940577;28;96590;-44
2021/12/06 12:39:25;;;;;;;5.78;3.25;;;21.60;66.10;;;;;;4940646;28;95487;-40
2021/12/06 12:42:00;;;;;;;5.65;2.08;;;21.60;66.10;;;;;;4940773;28;94980;-44
2021/12/06 12:44:50;;;;;;;7.97;2.60;;;21.60;66.20;;;;;;4941523;28;95272;-44
2021/12/06 12:47:27;;;;;;;;;;;21.60;66.20;;;;;;4941094;28;96311;-44
2021/12/06 12:50:07;;;;;;;7.15;2.65;;;21.60;66.10;;;;;;4942999;28;95897;-41
2021/12/06 12:52:42;;;;;;;4.63;2.03;;;21.60;66.20;;;;;;4941946;28;94986;-45
2021/12/06 12:55:29;;;;;;;7.10;2.70;;;21.60;66.20;;;;;;4942085;28;95179;-43
2021/12/06 12:58:15;;;;;;;5.65;2.70;;;21.60;66.20;;;;;;4941133;28;96845;-42
2021/12/06 13:00:51;;;;;;;4.05;2.30;;;21.60;66.20;;;;;;4940411;28;95916;-42
2021/12/06 13:03:58;;;;;;;4.38;2.20;;;21.60;66.20;;;;;;4941056;28;94982;-45
2021/12/06 13:06:37;;;;;;;4.28;2.05;;;21.60;66.20;;;;;;4939158;28;95168;-42
2021/12/06 13:09:28;;;;;;;5.90;2.45;;;21.50;66.20;;;;;;4940838;28;96431;-45
2021/12/06 13:12:06;;;;;;;4.75;2.42;;;21.50;66.30;;;;;;4938905;28;96023;-45
2021/12/06 13:14:46;;;;;;;4.03;1.92;;;21.50;66.30;;;;;;4940590;28;94964;-44
2021/12/06 13:17:28;;;;;;;5.17;2.13;;;21.50;66.20;;;;;;4939490;28;95376;-43
2021/12/06 13:20:11;;;;;;;5.50;2.70;;;21.50;66.30;;;;;;4940068;28;96055;-40
2021/12/06 13:22:50;;;;;;;4.53;1.88;;;21.50;66.10;;;;;;4940140;28;96026;-44
2021/12/06 13:25:27;;;;;;;4.90;1.70;;;21.50;66.00;;;;;;4940464;28;95022;-42
2021/12/06 13:28:07;;;;;;;3.55;2.53;;;21.50;66.00;;;;;;4917925;28;95431;-42
2021/12/06 13:30:45;;;;;;;2.95;1.90;;;21.50;66.10;;;;;;4935984;28;96605;-40
2021/12/06 13:33:35;;;;;;;2.22;1.65;;;21.50;66.20;;;;;;4939555;28;95435;-41
2021/12/06 13:36:08;;;;;;;5.93;1.92;;;21.50;66.40;;;;;;4940521;28;94959;-41
2021/12/06 13:38:42;;;;;;;2.33;1.42;;;21.50;65.90;;;;;;4939329;28;95243;-44